createdAt,value
2018-09-29T00:00:52.241Z,2.10
2018-09-29T00:03:21.136Z,2.30
2018-09-29T00:05:49.980Z,2.77
2018-09-29T00:08:18.802Z,1.90
2018-09-29T00:10:47.736Z,2.53
2018-09-29T00:13:16.546Z,1.70
2018-09-29T00:15:45.409Z,2.07
2018-09-29T00:18:14.213Z,2.43
2018-09-29T00:20:43.088Z,2.07
2018-09-29T00:23:11.913Z,2.63
2018-09-29T00:25:40.758Z,2.80
2018-09-29T00:28:09.579Z,3.73
2018-09-29T00:30:38.471Z,3.20
2018-09-29T00:33:07.326Z,2.90
2018-09-29T00:35:36.175Z,2.17
2018-09-29T00:38:05.007Z,2.10
2018-09-29T00:40:33.912Z,2.53
2018-09-29T00:43:02.789Z,2.03
2018-09-29T00:45:31.629Z,2.23
2018-09-29T00:48:00.497Z,2.07
2018-09-29T00:50:29.394Z,2.03
2018-09-29T00:52:58.180Z,2.70
2018-09-29T00:55:27.065Z,1.90
2018-09-29T00:57:55.926Z,2.63
2018-09-29T01:00:24.893Z,2.07
2018-09-29T01:02:53.714Z,2.10
2018-09-29T01:05:22.625Z,2.10
2018-09-29T01:07:51.519Z,2.10
2018-09-29T01:10:20.352Z,2.13
2018-09-29T01:12:49.197Z,2.57
2018-09-29T01:15:18.067Z,1.93
2018-09-29T01:17:46.871Z,2.80
2018-09-29T01:20:15.682Z,2.20
2018-09-29T01:22:44.496Z,2.57
2018-09-29T01:25:13.388Z,2.53
2018-09-29T01:27:42.199Z,2.90
2018-09-29T01:30:11.120Z,2.60
2018-09-29T01:32:39.949Z,2.37
2018-09-29T01:35:08.797Z,2.10
2018-09-29T01:37:37.590Z,2.30
2018-09-29T01:40:06.534Z,2.67
2018-09-29T01:42:35.348Z,2.07
2018-09-29T01:45:04.281Z,1.90
2018-09-29T01:47:33.066Z,2.00
2018-09-29T01:50:01.899Z,1.80
2018-09-29T01:52:30.744Z,1.73
2018-09-29T01:54:59.695Z,1.97
2018-09-29T01:57:28.605Z,1.73
2018-09-29T01:59:57.421Z,2.00
2018-09-29T02:02:26.290Z,1.90
2018-09-29T02:04:55.302Z,1.70
2018-09-29T02:07:24.238Z,1.80
2018-09-29T02:09:53.130Z,1.63
2018-09-29T02:12:22.050Z,2.43
2018-09-29T02:14:50.908Z,1.93
2018-09-29T02:17:20.699Z,1.50
2018-09-29T02:19:49.506Z,2.10
2018-09-29T02:22:18.429Z,1.83
2018-09-29T02:24:47.298Z,1.83
2018-09-29T02:27:16.180Z,2.17
2018-09-29T02:29:45.012Z,1.70
2018-09-29T02:32:13.939Z,1.60
2018-09-29T02:34:42.764Z,2.23
2018-09-29T02:37:11.593Z,1.47
2018-09-29T02:39:40.460Z,1.70
2018-09-29T02:42:09.318Z,2.37
2018-09-29T02:44:38.217Z,1.50
2018-09-29T02:47:07.074Z,2.13
2018-09-29T02:49:35.936Z,2.00
2018-09-29T02:52:05.299Z,1.97
2018-09-29T02:54:34.163Z,3.27
2018-09-29T02:57:02.974Z,1.83
2018-09-29T02:59:31.838Z,2.20
2018-09-29T03:02:00.727Z,2.30
2018-09-29T03:04:29.636Z,1.97
2018-09-29T03:06:58.594Z,1.83
2018-09-29T03:09:27.474Z,1.43
2018-09-29T03:11:56.358Z,2.30
2018-09-29T03:14:25.196Z,1.90
2018-09-29T03:16:54.025Z,2.23
2018-09-29T03:19:23.021Z,1.67
2018-09-29T03:21:51.889Z,2.60
2018-09-29T03:24:20.788Z,2.03
2018-09-29T03:26:49.675Z,2.07
2018-09-29T03:29:18.568Z,1.70
2018-09-29T03:31:47.491Z,2.27
2018-09-29T03:34:16.362Z,2.40
2018-09-29T03:36:45.193Z,2.00
2018-09-29T03:39:14.068Z,2.00
2018-09-29T03:41:42.949Z,1.83
2018-09-29T03:44:11.850Z,2.27
2018-09-29T03:46:40.717Z,2.30
2018-09-29T03:49:09.604Z,1.97
2018-09-29T03:51:38.485Z,1.93
2018-09-29T03:54:07.274Z,2.27
2018-09-29T03:56:36.095Z,1.53
2018-09-29T03:59:04.974Z,2.00
2018-09-29T04:01:33.755Z,1.90
2018-09-29T04:04:02.549Z,1.73
2018-09-29T04:06:31.414Z,2.10
2018-09-29T04:09:00.252Z,1.97
2018-09-29T04:11:29.122Z,1.80
2018-09-29T04:13:58.023Z,3.13
2018-09-29T04:16:26.925Z,1.77
2018-09-29T04:18:55.781Z,1.60
2018-09-29T04:21:24.619Z,1.80
2018-09-29T04:23:53.401Z,1.87
2018-09-29T04:26:22.247Z,1.77
2018-09-29T04:28:51.064Z,3.87
2018-09-29T04:31:20.071Z,5.03
2018-09-29T04:33:48.895Z,5.93
2018-09-29T04:36:17.680Z,7.30
2018-09-29T04:38:46.561Z,7.30
2018-09-29T04:41:15.426Z,8.30
2018-09-29T04:43:44.257Z,8.40
2018-09-29T04:46:13.073Z,8.00
2018-09-29T04:48:41.907Z,9.80
2018-09-29T04:51:10.743Z,9.60
2018-09-29T04:53:39.622Z,8.97
2018-09-29T04:56:08.440Z,7.37
2018-09-29T04:58:37.362Z,7.50
2018-09-29T05:01:06.368Z,6.20
2018-09-29T05:03:35.212Z,5.67
2018-09-29T05:06:04.079Z,5.07
2018-09-29T05:08:32.972Z,3.27
2018-09-29T05:11:02.256Z,3.17
2018-09-29T05:13:31.185Z,2.80
2018-09-29T05:16:00.103Z,2.50
2018-09-29T05:18:28.974Z,2.20
2018-09-29T05:20:58.037Z,2.57
2018-09-29T05:23:26.914Z,2.57
2018-09-29T05:25:55.833Z,2.50
2018-09-29T05:28:25.036Z,2.77
2018-09-29T05:30:54.076Z,2.80
2018-09-29T05:33:23.038Z,2.67
2018-09-29T05:35:51.860Z,2.80
2018-09-29T05:38:20.874Z,2.70
2018-09-29T05:40:49.799Z,2.40
2018-09-29T05:43:18.774Z,2.50
2018-09-29T05:45:47.934Z,2.43
2018-09-29T05:48:16.898Z,3.03
2018-09-29T05:50:45.664Z,2.50
2018-09-29T05:53:14.559Z,3.33
2018-09-29T05:55:43.370Z,2.70
2018-09-29T05:58:12.226Z,3.07
2018-09-29T06:00:41.152Z,3.13
2018-09-29T06:03:10.051Z,3.57
2018-09-29T06:05:39.235Z,3.13
2018-09-29T06:08:08.307Z,2.63
2018-09-29T06:10:37.360Z,3.10
2018-09-29T06:13:06.368Z,3.37
2018-09-29T06:15:35.310Z,3.07
2018-09-29T06:18:04.306Z,2.97
2018-09-29T06:20:33.356Z,3.30
2018-09-29T06:23:02.616Z,3.47
2018-09-29T06:25:31.820Z,3.60
2018-09-29T06:28:00.841Z,3.47
2018-09-29T06:30:29.883Z,3.50
2018-09-29T06:32:58.875Z,4.13
2018-09-29T06:35:27.818Z,3.73
2018-09-29T06:37:56.839Z,3.97
2018-09-29T06:40:25.900Z,3.67
2018-09-29T06:42:54.842Z,3.10
2018-09-29T06:45:23.840Z,3.30
2018-09-29T06:47:52.769Z,2.73
2018-09-29T06:50:21.649Z,3.20
2018-09-29T06:52:50.532Z,3.13
2018-09-29T06:55:19.495Z,3.53
2018-09-29T06:57:48.518Z,3.33
2018-09-29T07:00:17.587Z,2.57
2018-09-29T07:02:46.547Z,2.80
2018-09-29T07:05:15.398Z,3.57
2018-09-29T07:07:44.360Z,3.70
2018-09-29T07:10:13.381Z,2.77
2018-09-29T07:12:42.212Z,2.40
2018-09-29T07:15:11.168Z,2.13
2018-09-29T07:17:40.077Z,2.10
2018-09-29T07:20:08.913Z,2.90
2018-09-29T07:22:37.825Z,3.63
2018-09-29T07:25:06.696Z,2.70
2018-09-29T07:27:35.586Z,2.00
2018-09-29T07:30:04.490Z,2.30
2018-09-29T07:32:33.402Z,2.73
2018-09-29T07:35:02.304Z,2.93
2018-09-29T07:37:34.797Z,2.57
2018-09-29T07:40:03.664Z,2.03
2018-09-29T07:42:32.577Z,2.07
2018-09-29T07:45:01.411Z,2.93
2018-09-29T07:47:30.290Z,2.37
2018-09-29T07:49:59.162Z,2.43
2018-09-29T07:52:28.001Z,1.67
2018-09-29T07:54:56.920Z,2.07
2018-09-29T07:57:25.756Z,2.00
2018-09-29T07:59:54.644Z,2.30
2018-09-29T08:02:23.538Z,2.20
2018-09-29T08:04:52.398Z,2.07
2018-09-29T08:07:21.257Z,3.00
2018-09-29T08:09:50.204Z,1.70
2018-09-29T08:12:19.126Z,1.80
2018-09-29T08:14:47.960Z,2.23
2018-09-29T08:17:16.792Z,1.53
2018-09-29T08:19:45.675Z,2.33
2018-09-29T08:22:14.668Z,2.30
2018-09-29T08:24:43.480Z,1.70
2018-09-29T08:27:12.354Z,2.27
2018-09-29T08:29:41.148Z,1.50
2018-09-29T08:32:10.084Z,1.70
2018-09-29T08:34:38.987Z,1.90
2018-09-29T08:37:07.874Z,1.77
2018-09-29T08:39:46.462Z,1.70
2018-09-29T08:42:15.429Z,1.97
2018-09-29T08:44:44.300Z,1.40
2018-09-29T08:47:13.260Z,1.13
2018-09-29T08:49:42.178Z,1.10
2018-09-29T08:52:10.993Z,1.57
2018-09-29T08:54:39.870Z,1.53
2018-09-29T08:57:08.771Z,1.30
2018-09-29T08:59:37.649Z,1.50
2018-09-29T09:02:06.703Z,1.27
2018-09-29T09:04:35.589Z,1.10
2018-09-29T09:07:04.925Z,1.10
2018-09-29T09:09:33.840Z,1.53
2018-09-29T09:12:02.779Z,1.30
2018-09-29T09:14:31.696Z,2.27
2018-09-29T09:17:00.600Z,1.47
2018-09-29T09:19:29.529Z,1.20
2018-09-29T09:21:58.415Z,1.43
2018-09-29T09:24:27.321Z,1.23
2018-09-29T09:26:56.196Z,0.80
2018-09-29T09:29:25.048Z,1.03
2018-09-29T09:31:53.957Z,1.90
2018-09-29T09:34:22.872Z,1.20
2018-09-29T09:36:51.776Z,1.33
2018-09-29T09:39:20.678Z,1.60
2018-09-29T09:41:49.591Z,1.30
2018-09-29T09:44:18.443Z,1.10
2018-09-29T09:46:47.371Z,1.20
2018-09-29T09:49:16.256Z,1.10
2018-09-29T09:51:45.382Z,1.10
2018-09-29T09:54:14.331Z,0.90
2018-09-29T09:56:43.205Z,0.93
2018-09-29T09:59:12.126Z,1.40
2018-09-29T10:01:46.341Z,1.27
2018-09-29T10:04:15.321Z,1.07
2018-09-29T10:06:44.246Z,1.10
2018-09-29T10:09:14.071Z,1.87
2018-09-29T10:11:44.170Z,1.20
2018-09-29T10:14:13.042Z,1.13
2018-09-29T10:16:42.264Z,1.37
2018-09-29T10:19:11.240Z,1.97
2018-09-29T10:21:40.135Z,0.97
2018-09-29T10:24:09.079Z,1.10
2018-09-29T10:26:37.977Z,1.03
2018-09-29T10:29:07.001Z,1.63
2018-09-29T10:31:39.381Z,1.33
2018-09-29T10:34:09.141Z,1.27
2018-09-29T10:36:42.286Z,1.00
2018-09-29T10:39:15.251Z,1.20
2018-09-29T10:41:48.782Z,1.30
2018-09-29T10:44:30.737Z,1.10
2018-09-29T10:47:10.699Z,1.43
2018-09-29T10:49:54.310Z,1.00
2018-09-29T10:55:16.566Z,1.57
2018-09-29T10:57:45.717Z,1.10
2018-09-29T11:00:14.682Z,1.30
2018-09-29T11:02:44.175Z,1.43
2018-09-29T11:05:15.361Z,1.30
2018-09-29T11:07:51.337Z,0.90
2018-09-29T11:10:29.194Z,1.20
2018-09-29T11:13:01.912Z,0.80
2018-09-29T11:15:35.176Z,1.10
2018-09-29T11:18:05.908Z,1.20
2018-09-29T11:20:35.254Z,0.90
2018-09-29T11:23:04.231Z,1.13
2018-09-29T11:25:37.484Z,1.10
2018-09-29T11:28:08.522Z,1.50
2018-09-29T11:30:37.586Z,1.33
2018-09-29T11:33:12.696Z,0.90
2018-09-29T11:35:44.222Z,1.00
2018-09-29T11:38:14.725Z,1.10
2018-09-29T11:40:47.424Z,1.60
2018-09-29T11:43:16.990Z,0.90
2018-09-29T11:45:46.074Z,1.20
2018-09-29T11:48:20.341Z,1.10
2018-09-29T11:50:49.579Z,1.33
2018-09-29T11:53:20.572Z,1.13
2018-09-29T11:55:49.505Z,0.97
2018-09-29T11:58:18.322Z,1.37
2018-09-29T12:00:47.227Z,0.70
2018-09-29T12:03:16.111Z,1.00
2018-09-29T12:05:45.130Z,0.90
2018-09-29T12:08:14.172Z,1.20
2018-09-29T12:10:43.034Z,1.37
2018-09-29T12:13:11.883Z,1.10
2018-09-29T12:15:40.750Z,1.63
2018-09-29T12:18:09.602Z,1.27
2018-09-29T12:20:38.483Z,1.50
2018-09-29T12:23:07.450Z,1.07
2018-09-29T12:25:36.417Z,1.00
2018-09-29T12:28:05.334Z,1.40
2018-09-29T12:30:34.218Z,1.20
2018-09-29T12:33:03.113Z,0.70
2018-09-29T12:35:31.987Z,0.97
2018-09-29T12:38:01.029Z,1.10
2018-09-29T12:40:29.996Z,0.90
2018-09-29T12:42:58.929Z,1.30
2018-09-29T12:45:27.795Z,1.03
2018-09-29T12:47:56.736Z,1.00
2018-09-29T12:50:25.653Z,1.03
2018-09-29T12:52:54.516Z,1.47
2018-09-29T12:55:23.405Z,0.90
2018-09-29T12:57:52.490Z,0.77
2018-09-29T13:00:21.349Z,0.73
2018-09-29T13:02:50.175Z,0.47
2018-09-29T13:05:19.109Z,1.47
2018-09-29T13:07:48.038Z,0.63
2018-09-29T13:10:16.905Z,0.77
2018-09-29T13:12:45.796Z,0.90
2018-09-29T13:15:14.710Z,0.80
2018-09-29T13:17:43.585Z,0.80
2018-09-29T13:20:12.505Z,1.00
2018-09-29T13:22:41.439Z,0.90
2018-09-29T13:25:10.296Z,0.83
2018-09-29T13:27:39.198Z,1.00
2018-09-29T13:30:08.155Z,2.20
2018-09-29T13:32:37.033Z,1.67
2018-09-29T13:35:06.114Z,1.10
2018-09-29T13:37:35.055Z,0.97
2018-09-29T13:40:03.966Z,0.73
2018-09-29T13:42:32.969Z,1.47
2018-09-29T13:45:01.908Z,0.70
2018-09-29T13:47:30.852Z,0.53
2018-09-29T13:49:59.859Z,0.67
2018-09-29T13:52:28.730Z,0.87
2018-09-29T13:54:57.674Z,0.83
2018-09-29T13:57:26.511Z,1.27
2018-09-29T13:59:55.465Z,0.80
2018-09-29T14:02:24.343Z,0.60
2018-09-29T14:04:53.232Z,0.87
2018-09-29T14:07:22.155Z,0.97
2018-09-29T14:09:50.997Z,0.80
2018-09-29T14:12:19.904Z,1.27
2018-09-29T14:14:48.774Z,0.87
2018-09-29T14:17:17.887Z,0.90
2018-09-29T14:19:46.753Z,0.93
2018-09-29T14:22:15.719Z,1.53
2018-09-29T14:24:44.685Z,1.20
2018-09-29T14:27:21.892Z,1.33
2018-09-29T14:29:55.662Z,1.60
2018-09-29T14:32:27.488Z,1.33
2018-09-29T14:35:01.995Z,0.93
2018-09-29T14:37:32.209Z,0.97
2018-09-29T14:40:06.950Z,0.70
2018-09-29T14:42:39.989Z,0.93
2018-09-29T14:45:10.017Z,0.90
2018-09-29T14:47:42.584Z,0.70
2018-09-29T14:50:13.028Z,1.17
2018-09-29T14:52:46.937Z,0.90
2018-09-29T14:55:16.046Z,1.40
2018-09-29T14:57:50.309Z,1.33
2018-09-29T15:00:28.188Z,0.83
2018-09-29T15:03:01.490Z,1.03
2018-09-29T15:05:40.856Z,1.57
2018-09-29T15:08:16.360Z,1.23
2018-09-29T15:10:52.295Z,1.20
2018-09-29T15:13:27.740Z,1.17
2018-09-29T15:16:05.578Z,1.33
2018-09-29T15:18:53.491Z,1.60
2018-09-29T15:21:35.937Z,1.13
2018-09-29T15:27:03.179Z,1.07
2018-09-29T15:29:32.500Z,0.80
2018-09-29T15:32:02.273Z,0.90
2018-09-29T15:34:31.118Z,1.70
2018-09-29T15:36:59.949Z,1.80
2018-09-29T15:39:28.948Z,1.00
2018-09-29T15:41:58.901Z,1.10
2018-09-29T15:44:27.947Z,1.10
2018-09-29T15:46:56.851Z,1.00
2018-09-29T15:49:37.882Z,1.07
2018-09-29T15:52:09.998Z,1.20
2018-09-29T15:54:42.171Z,1.57
2018-09-29T15:57:34.792Z,1.73
2018-09-29T16:00:15.302Z,1.63
2018-09-29T16:02:44.837Z,1.43
2018-09-29T16:05:13.973Z,1.40
2018-09-29T16:07:42.837Z,1.53
2018-09-29T16:10:11.726Z,2.00
2018-09-29T16:12:40.569Z,2.93
2018-09-29T16:15:09.570Z,4.13
2018-09-29T16:17:38.458Z,3.93
2018-09-29T16:20:07.247Z,6.33
2018-09-29T16:22:36.057Z,4.00
2018-09-29T16:25:04.974Z,3.67
2018-09-29T16:27:33.711Z,2.73
2018-09-29T16:30:03.620Z,2.50
2018-09-29T16:32:32.382Z,7.70
2018-09-29T16:35:01.408Z,8.53
2018-09-29T16:37:30.391Z,6.43
2018-09-29T16:39:59.341Z,5.03
2018-09-29T16:42:28.140Z,4.20
2018-09-29T16:44:56.928Z,3.67
2018-09-29T16:47:25.812Z,3.10
2018-09-29T16:49:54.488Z,3.03
2018-09-29T16:52:23.229Z,3.10
2018-09-29T16:54:55.719Z,2.33
2018-09-29T16:57:28.460Z,1.57
2018-09-29T17:00:00.974Z,2.23
2018-09-29T17:02:36.399Z,1.87
2018-09-29T17:05:10.177Z,1.43
2018-09-29T17:07:44.018Z,2.20
2018-09-29T17:10:17.297Z,1.73
2018-09-29T17:12:50.088Z,1.80
2018-09-29T17:15:24.296Z,1.90
2018-09-29T17:17:57.897Z,2.20
2018-09-29T17:20:32.835Z,2.20
2018-09-29T17:23:05.993Z,3.43
2018-09-29T17:25:46.469Z,3.50
2018-09-29T17:28:19.279Z,4.23
2018-09-29T17:30:52.593Z,2.90
2018-09-29T17:33:26.499Z,3.90
2018-09-29T17:36:01.977Z,3.67
2018-09-29T17:38:36.355Z,3.47
2018-09-29T17:41:05.336Z,3.13
2018-09-29T17:43:34.274Z,5.43
2018-09-29T17:46:03.130Z,5.13
2018-09-29T17:48:32.101Z,4.67
2018-09-29T17:51:01.176Z,4.73
2018-09-29T17:53:30.235Z,5.70
2018-09-29T17:55:59.538Z,6.53
2018-09-29T17:58:29.960Z,10.77
2018-09-29T18:00:59.009Z,9.87
2018-09-29T18:03:28.421Z,11.23
2018-09-29T18:05:57.330Z,11.07
2018-09-29T18:08:26.466Z,11.13
2018-09-29T18:10:55.475Z,13.03
2018-09-29T18:13:24.591Z,12.70
2018-09-29T18:15:54.021Z,12.10
2018-09-29T18:18:23.010Z,28.80
2018-09-29T18:20:51.970Z,32.60
2018-09-29T18:23:21.113Z,27.73
2018-09-29T18:25:50.182Z,22.37
2018-09-29T18:28:19.288Z,22.13
2018-09-29T18:30:48.390Z,19.97
2018-09-29T18:33:17.410Z,15.00
2018-09-29T18:35:46.963Z,15.63
2018-09-29T18:38:16.009Z,15.70
2018-09-29T18:40:44.983Z,14.63
2018-09-29T18:43:14.521Z,14.10
2018-09-29T18:45:43.382Z,12.87
2018-09-29T18:48:12.476Z,12.33
2018-09-29T18:50:41.611Z,10.37
2018-09-29T19:10:14.472Z,19.43
2018-09-29T19:12:43.604Z,26.67
2018-09-29T19:15:12.564Z,28.63
2018-09-29T19:17:43.274Z,38.53
2018-09-29T19:20:12.915Z,40.13
2018-09-29T19:22:44.372Z,39.33
2018-09-29T19:25:13.622Z,37.87
2018-09-29T19:27:42.898Z,32.00
2018-09-29T19:30:13.510Z,29.23
2018-09-29T19:32:42.630Z,31.17
2018-09-29T19:35:12.561Z,31.87
2018-09-29T19:37:42.592Z,33.70
2018-09-29T19:40:11.684Z,34.97
2018-09-29T19:42:40.846Z,33.33
2018-09-29T19:45:12.985Z,37.83
2018-09-29T19:47:43.675Z,36.70
2018-09-29T19:50:12.880Z,34.33
2018-09-29T19:52:42.554Z,35.30
2018-09-29T19:55:12.169Z,34.23
2018-09-29T19:57:42.031Z,35.27
2018-09-29T20:00:11.473Z,34.23
2018-09-29T20:02:40.443Z,31.27
2018-09-29T20:05:09.389Z,29.47
2018-09-29T20:07:38.372Z,27.30
2018-09-29T20:10:07.303Z,24.30
2018-09-29T20:12:36.268Z,23.77
2018-09-29T20:15:05.203Z,23.07
2018-09-29T20:17:34.461Z,23.93
2018-09-29T20:20:03.452Z,22.97
2018-09-29T20:22:32.462Z,23.10
2018-09-29T20:25:01.589Z,23.03
2018-09-29T20:27:30.609Z,22.10
2018-09-29T20:30:00.120Z,23.20
2018-09-29T20:32:29.113Z,23.27
2018-09-29T20:34:58.414Z,25.43
2018-09-29T20:37:27.353Z,22.93
2018-09-29T20:39:56.292Z,25.30
2018-09-29T20:42:25.375Z,25.07
2018-09-29T20:44:54.297Z,26.70
2018-09-29T20:47:23.241Z,31.13
2018-09-29T20:49:52.275Z,27.70
2018-09-29T20:52:21.326Z,30.43
2018-09-29T20:54:50.456Z,32.63
2018-09-29T20:57:19.365Z,30.60
2018-09-29T20:59:48.610Z,31.70
2018-09-29T21:02:17.634Z,31.43
2018-09-29T21:04:46.600Z,31.13
2018-09-29T21:07:15.653Z,33.57
2018-09-29T21:09:44.658Z,35.97
2018-09-29T21:12:13.864Z,36.20
2018-09-29T21:14:42.810Z,35.83
2018-09-29T21:17:11.686Z,34.20
2018-09-29T21:19:40.934Z,34.57
2018-09-29T21:22:09.955Z,34.47
2018-09-29T21:24:39.102Z,36.30
2018-09-29T21:27:08.139Z,35.87
2018-09-29T21:29:37.138Z,36.63
2018-09-29T21:32:06.366Z,39.53
2018-09-29T21:34:35.277Z,37.67
2018-09-29T21:37:04.295Z,36.60
2018-09-29T21:40:57.901Z,34.43
2018-09-29T21:43:27.049Z,34.80
2018-09-29T21:45:56.379Z,32.67
2018-09-29T21:48:25.726Z,33.53
2018-09-29T21:50:54.750Z,32.97
2018-09-29T21:53:23.848Z,32.80
2018-09-29T21:55:54.004Z,31.27
2018-09-29T21:58:22.966Z,30.07
2018-09-29T22:00:52.011Z,27.37
2018-09-29T22:03:20.853Z,28.80
2018-09-29T22:05:49.718Z,29.10
2018-09-29T22:08:18.669Z,27.17
2018-09-29T22:10:47.637Z,28.97
2018-09-29T22:13:16.524Z,28.50
2018-09-29T22:15:45.464Z,28.30
2018-09-29T22:18:14.334Z,30.20
2018-09-29T22:20:43.270Z,28.97
2018-09-29T22:23:12.218Z,31.03
2018-09-29T22:25:41.254Z,31.93
2018-09-29T22:28:10.095Z,31.03
2018-09-29T22:30:38.993Z,32.23
2018-09-29T22:33:08.020Z,32.43
2018-09-29T22:35:36.872Z,33.93
2018-09-29T22:38:07.066Z,33.63
2018-09-29T22:40:35.924Z,33.10
2018-09-29T22:43:04.804Z,31.80
2018-09-29T22:45:33.698Z,29.43
2018-09-29T22:48:02.611Z,28.03
2018-09-29T22:50:31.552Z,27.87
2018-09-29T22:53:00.596Z,26.43
2018-09-29T22:55:29.440Z,28.83
2018-09-29T22:57:58.292Z,29.03
2018-09-29T23:00:27.147Z,28.83
2018-09-29T23:02:55.964Z,28.97
2018-09-29T23:05:24.892Z,27.40
2018-09-29T23:07:53.721Z,29.63
2018-09-29T23:10:22.604Z,29.23
2018-09-29T23:12:51.423Z,30.20
2018-09-29T23:15:20.327Z,31.53
2018-09-29T23:17:49.167Z,32.40
2018-09-29T23:20:18.118Z,31.73
2018-09-29T23:22:46.998Z,32.80
2018-09-29T23:25:15.940Z,29.90
2018-09-29T23:27:44.773Z,29.70
2018-09-29T23:30:13.689Z,29.93
2018-09-29T23:32:42.557Z,31.53
2018-09-29T23:35:11.440Z,29.50
2018-09-29T23:37:40.322Z,29.33
2018-09-29T23:40:09.205Z,27.77
2018-09-29T23:42:38.045Z,29.07
2018-09-29T23:45:07.000Z,29.70
2018-09-29T23:47:35.848Z,26.53
2018-09-29T23:50:04.808Z,29.63
2018-09-29T23:52:33.645Z,28.10
2018-09-29T23:55:02.534Z,26.03
2018-09-29T23:57:31.411Z,27.43
